Terminal Aerodrome Forecast
Issued by NWS

Home | Current Version | Previous Version | Text Only | Print | Product List | Glossary On
Versions: 1 2 3 4 5 6 7 8 9 10 11 12 13 14 15
664
FTUS46 KMFR 191740
TAFRBG
TAF
KRBG 191740Z 1918/2018 16008KT P6SM VCSH BKN025
     FM200000 VRB03KT P6SM -SHRA SCT030 OVC060
     FM200600 17003KT 6SM RA BR OVC025
     FM201200 23012KT 6SM -SHRA OVC035=

USA.gov is the U.S. government's official web portal to all federal, state and local government web resources and services.